• Join FlightAware (Why Join?)
  • Login
  • US Flag 
04:45PM EST


 

Airport Tracker/Info


-or-


 

Live Flight TrackerFlight Track Log ✈ OPT452 ✈ 17-Apr-2013 ✈ KHEG - KBCT

Flight Track Log - Related Links

Times and Time Zones

All times are in EDT time to prevent confusion due to time zone crossing. See the OPT452 flight status page for this flight to view local times or setup timezone preferences in your user account.

Time Position Orientation Groundspeed Altitude Reporting Facility
EDT Latitude Longitude Course Direction KTS MPH feet Rate Location/Type
04:09PM 30.3247 -81.8217 338° Northwest 251 289 2,400  Level Jacksonville Center
04:10PM 30.3125 -81.8508 244° Southwest 252 290 3,000 1,680 Climbing Jacksonville Center
04:11PM 30.2628 -81.9089 225° Southwest 270 311 4,800 1,860 Climbing Jacksonville Center
04:12PM 30.2022 -81.9022 175° South 239 275 6,800 1,920 Climbing Jacksonville Center
04:13PM 30.1475 -81.8547 143° Southeast 204 235 8,700 1,500 Climbing Jacksonville Center
04:14PM 30.0906 -81.8050 143° Southeast 218 251 9,900 1,140 Climbing Jacksonville Center
04:15PM 30.0297 -81.7506 142° Southeast 249 287 11,000 1,080 Climbing Jacksonville Center
04:16PM 29.9539 -81.6844 143° Southeast 300 345 12,100 1,680 Climbing Jacksonville Center
04:17PM 29.8739 -81.6136 142° Southeast 343 395 14,400 1,440 Climbing Jacksonville Center
04:18PM 29.7958 -81.5450 143° Southeast 356 410 15,000 900 Climbing Jacksonville Center
04:19PM 29.7117 -81.4697 142° Southeast 375 432 16,300 1,500 Climbing Jacksonville Center
04:20PM 29.6314 -81.4017 144° Southeast 369 425 18,000 840 Climbing Jacksonville Center
04:21PM 29.5472 -81.3289 143° Southeast 364 419 18,000  Level Jacksonville Center
04:22PM 29.4583 -81.2517 143° Southeast 377 434 18,000  Level Jacksonville Center
04:23PM 29.3678 -81.1769 144° Southeast 395 455 18,000 60 Level Jacksonville Center
04:25PM 29.2208 -80.9458 126° Southeast 402 463 18,200 660 Climbing Miami Center
04:26PM 29.1547 -80.8533 129° Southeast 395 455 20,300 2,040 Climbing Miami Center
04:27PM 29.0642 -80.8072 156° South 364 419 22,300 2,040 Climbing Miami Center
04:28PM 28.9672 -80.7728 163° South 354 407 24,400 1,800 Climbing Miami Center
04:29PM 28.8867 -80.7417 161° South 354 407 26,000 480 Climbing Miami Center
04:30PM 28.7708 -80.7019 163° South 376 433 25,400 -1,020 Descending Miami Center
04:31PM 28.6575 -80.6483 157° South 419 482 24,000 -780 Descending Miami Center
04:32PM 28.5531 -80.5739 148° Southeast 435 501 23,900 -900 Descending Miami Center
04:33PM 28.4631 -80.5050 146° Southeast 442 509 22,300 -1,680 Descending Miami Center
04:34PM 28.3522 -80.4258 148° Southeast 436 502 20,600 -1,680 Descending Miami Center
04:35PM 28.2517 -80.3567 149° Southeast 430 495 19,000 -1,500 Descending Miami Center
04:36PM 28.1678 -80.2953 147° Southeast 420 483 17,700 -1,500 Descending Miami Center
04:37PM 28.0814 -80.2361 149° Southeast 396 456 16,100 -1,620 Descending Miami Center
04:38PM 27.9908 -80.1886 155° Southeast 369 425 14,500 -1,500 Descending Miami Center
04:39PM 27.8928 -80.1836 177° South 350 403 13,100 -1,200 Descending Miami Center
04:40PM 27.7886 -80.1733 175° South 350 403 12,200 -900 Descending Miami Center
04:41PM 27.6947 -80.1661 176° South 350 403 11,400 -840 Descending Miami Center
04:42PM 27.6114 -80.1589 176° South 344 396 10,600 -720 Descending Miami Center
04:43PM 27.5197 -80.1539 177° South 339 390 10,000 -300 Descending Miami Center
04:44PM 27.4239 -80.1442 175° South 324 373 10,000  Level Miami Center
04:45PM 27.3425 -80.1394 177° South 305 351 10,000 -60 Level Miami Center
04:46PM 27.2675 -80.1303 174° South 288 331 9,900 -720 Descending Miami Center
04:47PM 27.1994 -80.1028 160° South 288 331 8,600 -1,440 Descending Miami Center
04:48PM 27.1292 -80.0706 158° South 282 325 7,100 -1,620 Descending Miami Center
04:49PM 27.0506 -80.0308 156° South 282 325 5,400 -1,080 Descending Miami Center
04:50PM 26.9844 -79.9967 155° Southeast 276 318 5,000 -240 Descending Miami Center
04:51PM 26.9131 -80.0156 193° South 246 283 5,000  Level Miami Center
04:52PM 26.8578 -80.0631 217° Southwest 273 314 5,000  Level Miami Center
04:54PM 26.7288 -80.0886 193° South  Level FlightAware Approximate
05:01PM 26.3785 -80.1077 180° South  Level Estimated
05:02PM 26.3785 -80.1077 180° South  Level Estimated
05:03PM 26.3785 -80.1077 180° South  Level Estimated
05:04PM 26.3785 -80.1077 180° South  Level Estimated
05:05PM 26.3785 -80.1077 180° South  Level Estimated
05:06PM 26.3785 -80.1077 180° South  Level Estimated
05:07PM 26.3785 -80.1077 180° South  Level Estimated
05:08PM 26.3785 -80.1077 180° South  Level Estimated
05:09PM 26.3785 -80.1077 180° South  Level Estimated